Time;durP1;ratioP1;P1;durP2;ratioP2;P2;SDS_P1;SDS_P2;PMS_P1;PMS_P2;Temp;Humidity;BMP_temperature;BMP_pressure;BME280_temperature;BME280_humidity;BME280_pressure;Samples;Min_cycle;Max_cycle;Signal;HPM_P1;HPM_P2
2022/01/14 00:00:44;;;;;;;10.70;5.80;;;;;;;;;;4974545;28;20027;-87
2022/01/14 00:03:11;;;;;;;11.88;6.35;;;;;;;;;;4973233;28;20030;-86
2022/01/14 00:05:37;;;;;;;9.95;6.00;;;;;;;;;;4975334;28;20114;-87
2022/01/14 00:08:03;;;;;;;11.38;5.90;;;;;;;;;;4973515;28;20054;-88
2022/01/14 00:10:31;;;;;;;10.82;6.15;;;;;;;;;;4977338;28;20098;-87
2022/01/14 00:13:06;;;;;;;12.75;6.50;;;;;;;;;;4973393;28;20438;-87
2022/01/14 00:15:34;;;;;;;17.08;7.13;;;;;;;;;;4978542;28;20471;-87
2022/01/14 00:18:01;;;;;;;12.65;6.40;;;;;;;;;;4993212;28;20401;-87
2022/01/14 00:20:27;;;;;;;10.60;6.55;;;;;;;;;;4993654;28;20541;-87
2022/01/14 00:22:53;;;;;;;16.33;8.52;;;;;;;;;;4993994;28;20026;-87
2022/01/14 00:33:28;;;;;;;14.23;7.85;;;;;;;;;;4993828;28;20041;-87
2022/01/14 00:35:54;;;;;;;14.02;7.07;;;;;;;;;;4996003;28;20050;-87
2022/01/14 00:38:20;;;;;;;12.32;6.00;;;;;;;;;;4976860;28;20034;-86
2022/01/14 00:40:47;;;;;;;12.80;6.57;;;;;;;;;;4974758;28;20031;-87
2022/01/14 00:43:13;;;;;;;14.57;7.10;;;;;;;;;;4977729;28;20030;-86
2022/01/14 00:45:39;;;;;;;15.43;7.35;;;;;;;;;;4976794;28;20031;-86
2022/01/14 00:48:05;;;;;;;8.90;5.63;;;;;;;;;;4974453;28;20062;-86
2022/01/14 00:50:33;;;;;;;9.57;5.65;;;;;;;;;;4974557;28;20033;-87
2022/01/14 00:52:59;;;;;;;10.73;6.78;;;;;;;;;;4977044;28;20396;-87
2022/01/14 00:55:28;;;;;;;14.38;7.00;;;;;;;;;;4986578;28;20019;-86
2022/01/14 01:00:25;;;;;;;13.23;6.13;;;;;;;;;;4976343;28;20035;-86
2022/01/14 01:02:51;;;;;;;11.52;6.40;;;;;;;;;;4974709;28;20066;-87
2022/01/14 01:05:18;;;;;;;10.57;6.38;;;;;;;;;;4987555;28;20027;-87
2022/01/14 01:07:50;;;;;;;12.40;7.15;;;;;;;;;;4995809;28;20035;-87
2022/01/14 01:10:17;;;;;;;9.93;6.15;;;;;;;;;;4987306;28;20027;-88
2022/01/14 01:15:15;;;;;;;13.75;5.78;;;;;;;;;;4979349;28;20023;-87
2022/01/14 01:17:41;;;;;;;11.18;5.75;;;;;;;;;;4998615;28;20080;-86
2022/01/14 01:20:17;;;;;;;10.95;5.53;;;;;;;;;;4999550;28;20038;-86
2022/01/14 01:22:46;;;;;;;10.27;5.32;;;;;;;;;;4999670;28;20030;-87
2022/01/14 01:25:15;;;;;;;13.18;6.35;;;;;;;;;;4995383;28;20027;-86
2022/01/14 01:27:43;;;;;;;15.70;5.53;;;;;;;;;;4985282;28;20436;-86
2022/01/14 01:30:15;;;;;;;10.25;5.57;;;;;;;;;;4977575;28;20047;-86
2022/01/14 01:32:41;;;;;;;11.27;5.65;;;;;;;;;;4977003;28;20027;-86
2022/01/14 01:35:07;;;;;;;11.70;5.82;;;;;;;;;;4976730;28;20038;-86
2022/01/14 01:37:33;;;;;;;10.60;5.97;;;;;;;;;;4975725;28;20030;-86
2022/01/14 01:39:59;;;;;;;12.80;5.80;;;;;;;;;;4968775;28;20031;-86
2022/01/14 01:42:29;;;;;;;11.05;6.15;;;;;;;;;;4963407;28;20035;-86
2022/01/14 01:44:55;;;;;;;10.30;5.82;;;;;;;;;;4959096;29;20038;-86
2022/01/14 01:47:22;;;;;;;18.52;6.05;;;;;;;;;;4958690;29;20122;-86
2022/01/14 01:49:48;;;;;;;10.68;5.47;;;;;;;;;;4959425;29;20034;-86
2022/01/14 01:52:14;;;;;;;9.38;5.63;;;;;;;;;;4960149;29;20027;-86
2022/01/14 01:54:40;;;;;;;13.13;6.28;;;;;;;;;;4957436;29;20023;-86
2022/01/14 01:57:07;;;;;;;8.68;5.32;;;;;;;;;;4956311;29;20034;-87
2022/01/14 01:59:33;;;;;;;10.50;5.63;;;;;;;;;;4962103;29;20436;-86
2022/01/14 02:02:00;;;;;;;10.07;5.28;;;;;;;;;;4960410;29;20057;-85
2022/01/14 02:04:26;;;;;;;9.88;5.25;;;;;;;;;;4962178;29;20122;-86
2022/01/14 02:06:54;;;;;;;8.52;5.32;;;;;;;;;;4966857;28;20039;-85
2022/01/14 02:09:21;;;;;;;13.70;6.38;;;;;;;;;;4980697;28;20063;-86
2022/01/14 02:11:47;;;;;;;9.82;5.93;;;;;;;;;;4980934;28;20087;-85
2022/01/14 02:14:53;;;;;;;10.48;5.63;;;;;;;;;;4981201;28;20039;-86
2022/01/14 02:17:29;;;;;;;7.63;4.70;;;;;;;;;;4980630;28;20016;-86
2022/01/14 02:22:46;;;;;;;7.95;4.68;;;;;;;;;;4982607;28;20026;-85
2022/01/14 02:25:14;;;;;;;;;;;;;;;;;;5014576;28;20015;-86
2022/01/14 02:27:40;;;;;;;8.05;4.50;;;;;;;;;;5001431;28;19897;-86
2022/01/14 02:30:07;;;;;;;7.30;4.53;;;;;;;;;;5000876;28;20026;-86
2022/01/14 02:32:33;;;;;;;10.35;4.85;;;;;;;;;;5019926;28;20090;-86
2022/01/14 02:35:02;;;;;;;11.82;5.60;;;;;;;;;;5009321;28;20023;-85
2022/01/14 02:37:28;;;;;;;12.85;5.50;;;;;;;;;;4998846;28;20021;-86
2022/01/14 02:39:54;;;;;;;11.18;5.03;;;;;;;;;;5007897;28;20022;-86
2022/01/14 02:42:20;;;;;;;9.95;5.32;;;;;;;;;;5000275;28;20015;-86
2022/01/14 02:44:48;;;;;;;10.85;5.57;;;;;;;;;;5000199;28;20086;-86
2022/01/14 02:47:17;;;;;;;8.65;4.88;;;;;;;;;;5000128;28;20049;-86
2022/01/14 02:49:43;;;;;;;8.50;5.10;;;;;;;;;;5000155;28;20023;-86
2022/01/14 02:52:09;;;;;;;10.02;5.60;;;;;;;;;;4985554;28;20062;-86
2022/01/14 02:55:02;;;;;;;11.45;5.95;;;;;;;;;;4994643;28;20082;-86
2022/01/14 02:57:28;;;;;;;11.25;5.03;;;;;;;;;;4980504;28;20023;-87
2022/01/14 02:59:54;;;;;;;9.57;4.57;;;;;;;;;;4980625;28;20011;-87
2022/01/14 03:02:21;;;;;;;16.83;5.25;;;;;;;;;;5000161;28;20031;-87
2022/01/14 03:04:47;;;;;;;14.48;5.47;;;;;;;;;;5014602;28;20015;-87
2022/01/14 03:07:13;;;;;;;10.10;4.95;;;;;;;;;;5014563;28;20015;-87
2022/01/14 03:09:39;;;;;;;10.25;4.55;;;;;;;;;;4983786;28;20058;-86
2022/01/14 03:12:06;;;;;;;8.10;4.60;;;;;;;;;;4999641;28;20091;-86
2022/01/14 03:14:32;;;;;;;10.27;5.30;;;;;;;;;;4986814;28;20030;-86
2022/01/14 03:16:59;;;;;;;11.43;5.15;;;;;;;;;;4996166;28;20019;-87
2022/01/14 03:19:26;;;;;;;8.25;4.25;;;;;;;;;;4986445;28;20010;-87
2022/01/14 03:22:04;;;;;;;14.02;5.05;;;;;;;;;;5002362;28;20022;-87
2022/01/14 03:27:02;;;;;;;7.72;4.18;;;;;;;;;;4998703;28;20019;-87
2022/01/14 03:29:28;;;;;;;8.10;3.95;;;;;;;;;;5009380;23;20062;-82
2022/01/14 03:31:54;;;;;;;9.35;5.00;;;;;;;;;;4975768;28;20042;-81
2022/01/14 03:34:20;;;;;;;9.50;5.18;;;;;;;;;;4961836;29;20027;-83
2022/01/14 03:36:46;;;;;;;8.20;4.28;;;;;;;;;;4966818;28;20041;-83
2022/01/14 03:39:13;;;;;;;9.18;4.68;;;;;;;;;;4981282;28;20058;-81
2022/01/14 03:41:39;;;;;;;7.47;4.88;;;;;;;;;;4980614;28;20030;-83
2022/01/14 03:44:05;;;;;;;7.90;4.45;;;;;;;;;;4981516;28;20035;-82
2022/01/14 03:46:31;;;;;;;8.45;4.53;;;;;;;;;;4971408;28;20046;-83
2022/01/14 03:48:57;;;;;;;7.38;4.78;;;;;;;;;;4958621;28;20448;-83
2022/01/14 03:51:24;;;;;;;7.28;4.57;;;;;;;;;;4960516;29;20495;-81
2022/01/14 03:53:50;;;;;;;9.98;4.15;;;;;;;;;;4960168;28;20023;-83
2022/01/14 03:56:18;;;;;;;8.27;4.35;;;;;;;;;;4957254;29;20488;-83
2022/01/14 03:58:44;;;;;;;6.47;3.83;;;;;;;;;;4958026;28;20066;-83
2022/01/14 04:01:11;;;;;;;7.60;5.10;;;;;;;;;;4959639;29;20023;-84
2022/01/14 04:03:37;;;;;;;7.85;4.72;;;;;;;;;;4965898;28;20031;-83
2022/01/14 04:06:03;;;;;;;11.20;5.28;;;;;;;;;;4978226;28;20030;-84
2022/01/14 04:08:30;;;;;;;10.40;4.85;;;;;;;;;;4977029;28;20031;-83
2022/01/14 04:10:57;;;;;;;9.98;4.80;;;;;;;;;;4978574;28;20073;-84
2022/01/14 04:13:36;;;;;;;8.80;4.93;;;;;;;;;;4976963;28;20023;-84
2022/01/14 04:16:03;;;;;;;10.90;5.50;;;;;;;;;;4971659;28;20023;-83
2022/01/14 04:18:29;;;;;;;11.02;5.63;;;;;;;;;;4961072;28;20404;-84
2022/01/14 04:20:55;;;;;;;10.00;4.85;;;;;;;;;;4961411;29;20125;-83
2022/01/14 04:23:22;;;;;;;16.63;6.38;;;;;;;;;;4962713;29;20035;-84
2022/01/14 04:25:51;;;;;;;8.43;5.28;;;;;;;;;;4959377;29;20054;-84
2022/01/14 04:28:18;;;;;;;10.13;5.18;;;;;;;;;;4965092;28;20038;-83
2022/01/14 04:30:44;;;;;;;10.73;5.30;;;;;;;;;;4960578;29;20039;-83
2022/01/14 04:33:10;;;;;;;8.50;5.15;;;;;;;;;;4959874;29;20035;-83
2022/01/14 04:35:36;;;;;;;9.27;4.90;;;;;;;;;;4958174;29;20024;-82
2022/01/14 04:38:02;;;;;;;11.13;5.43;;;;;;;;;;4971403;29;20027;-79
2022/01/14 04:40:28;;;;;;;14.15;5.28;;;;;;;;;;4971327;28;20019;-82
2022/01/14 04:42:57;;;;;;;9.27;4.90;;;;;;;;;;4969362;29;20106;-82
2022/01/14 04:48:02;;;;;;;8.43;4.47;;;;;;;;;;4970030;29;20027;-83
2022/01/14 04:50:28;;;;;;;9.23;4.95;;;;;;;;;;4964110;28;20115;-83
2022/01/14 04:52:54;;;;;;;7.43;4.55;;;;;;;;;;4965028;28;20042;-83
2022/01/14 04:55:21;;;;;;;8.15;4.55;;;;;;;;;;4963004;29;20024;-82
2022/01/14 04:57:47;;;;;;;7.47;4.43;;;;;;;;;;4962844;29;20117;-83
2022/01/14 05:00:14;;;;;;;6.20;4.53;;;;;;;;;;4962804;28;20055;-82
2022/01/14 05:02:40;;;;;;;9.30;4.68;;;;;;;;;;4962878;29;20054;-82
2022/01/14 05:05:07;;;;;;;9.82;4.55;;;;;;;;;;4967414;29;20035;-80
2022/01/14 05:07:34;;;;;;;9.90;5.00;;;;;;;;;;4974671;29;20031;-79
2022/01/14 05:12:33;;;;;;;11.82;5.43;;;;;;;;;;4974934;29;20031;-80
2022/01/14 05:15:00;;;;;;;10.77;6.07;;;;;;;;;;4965934;29;20023;-83
2022/01/14 05:17:26;;;;;;;14.07;6.18;;;;;;;;;;4963523;29;20436;-83
2022/01/14 05:19:52;;;;;;;9.55;5.32;;;;;;;;;;4962346;28;20038;-81
2022/01/14 05:22:18;;;;;;;19.10;6.60;;;;;;;;;;4964975;29;20035;-83
2022/01/14 05:24:44;;;;;;;11.00;6.05;;;;;;;;;;4964497;29;20031;-84
2022/01/14 05:27:10;;;;;;;14.98;6.35;;;;;;;;;;4963766;29;20035;-83
2022/01/14 05:29:36;;;;;;;15.23;6.85;;;;;;;;;;4965742;28;20039;-83
2022/01/14 05:32:05;;;;;;;14.23;5.63;;;;;;;;;;5003032;28;20030;-82
2022/01/14 05:34:32;;;;;;;15.05;7.07;;;;;;;;;;5004576;28;20469;-85
2022/01/14 05:36:58;;;;;;;12.05;6.65;;;;;;;;;;5000950;28;20030;-83
2022/01/14 05:39:24;;;;;;;15.00;7.57;;;;;;;;;;4982432;28;20027;-84
2022/01/14 05:41:50;;;;;;;18.50;7.95;;;;;;;;;;4982087;28;20034;-83
2022/01/14 05:44:16;;;;;;;15.93;7.78;;;;;;;;;;4983032;28;20027;-83
2022/01/14 05:46:42;;;;;;;13.35;7.53;;;;;;;;;;4982713;28;20031;-81
2022/01/14 05:49:08;;;;;;;12.20;5.80;;;;;;;;;;4983285;28;20023;-83
2022/01/14 05:51:34;;;;;;;12.80;6.40;;;;;;;;;;4982816;28;20030;-85
2022/01/14 05:54:00;;;;;;;15.85;7.47;;;;;;;;;;4983314;28;20026;-82
2022/01/14 05:56:26;;;;;;;17.30;7.18;;;;;;;;;;4981683;28;20026;-83
2022/01/14 05:58:52;;;;;;;15.07;7.68;;;;;;;;;;4981365;28;20019;-84
2022/01/14 06:01:18;;;;;;;14.40;7.05;;;;;;;;;;4981939;28;20257;-83
2022/01/14 06:03:44;;;;;;;15.55;7.15;;;;;;;;;;4982720;28;20102;-83
2022/01/14 06:06:13;;;;;;;16.50;7.38;;;;;;;;;;4982522;28;20031;-83
2022/01/14 06:08:39;;;;;;;14.50;7.55;;;;;;;;;;4983010;28;20031;-83
2022/01/14 06:11:05;;;;;;;11.88;7.15;;;;;;;;;;4980944;28;20034;-83
2022/01/14 06:13:34;;;;;;;14.00;7.10;;;;;;;;;;4978777;28;20082;-83
2022/01/14 06:16:00;;;;;;;17.77;6.80;;;;;;;;;;4973162;28;20035;-81
2022/01/14 06:18:26;;;;;;;14.43;6.93;;;;;;;;;;4961177;28;20162;-83
2022/01/14 06:20:52;;;;;;;12.65;5.93;;;;;;;;;;4959652;29;20101;-82
2022/01/14 06:23:18;;;;;;;11.55;5.90;;;;;;;;;;4961790;29;20038;-84
2022/01/14 06:25:44;;;;;;;9.68;5.53;;;;;;;;;;4960068;29;20407;-83
2022/01/14 06:28:10;;;;;;;11.82;5.53;;;;;;;;;;4960791;29;20482;-83
2022/01/14 06:30:36;;;;;;;10.43;5.85;;;;;;;;;;4960744;28;20130;-84
2022/01/14 06:33:03;;;;;;;11.82;6.15;;;;;;;;;;4965450;28;20041;-82
2022/01/14 06:35:29;;;;;;;14.57;7.60;;;;;;;;;;4979586;28;20082;-82
2022/01/14 06:37:57;;;;;;;19.58;8.02;;;;;;;;;;4979156;28;20027;-84
2022/01/14 06:40:23;;;;;;;16.77;7.90;;;;;;;;;;4980496;28;20023;-83
2022/01/14 06:42:50;;;;;;;15.73;7.68;;;;;;;;;;4978758;28;20109;-83
2022/01/14 06:45:16;;;;;;;13.77;7.78;;;;;;;;;;4980303;28;20428;-83
2022/01/14 06:47:41;;;;;;;18.55;8.93;;;;;;;;;;4978013;28;20042;-83
2022/01/14 06:50:08;;;;;;;22.83;10.57;;;;;;;;;;4984542;28;20041;-81
2022/01/14 06:52:34;;;;;;;18.80;9.18;;;;;;;;;;4987943;28;20038;-83
2022/01/14 06:55:00;;;;;;;18.42;9.63;;;;;;;;;;4982212;28;20023;-82
2022/01/14 06:57:26;;;;;;;15.82;8.85;;;;;;;;;;4982377;28;20027;-85
2022/01/14 06:59:53;;;;;;;14.68;8.88;;;;;;;;;;4982809;28;20023;-81
2022/01/14 07:02:19;;;;;;;15.68;8.90;;;;;;;;;;4978669;28;20035;-84
2022/01/14 07:04:45;;;;;;;17.45;8.85;;;;;;;;;;4980832;28;20086;-82
2022/01/14 07:07:11;;;;;;;22.90;8.60;;;;;;;;;;4979449;28;20109;-82
2022/01/14 07:09:55;;;;;;;18.00;8.15;;;;;;;;;;4987560;28;20093;-83
2022/01/14 07:12:21;;;;;;;15.98;8.23;;;;;;;;;;4992331;28;20226;-84
2022/01/14 07:14:47;;;;;;;14.75;7.88;;;;;;;;;;4977979;28;20383;-82
2022/01/14 07:17:13;;;;;;;16.50;7.60;;;;;;;;;;4961176;28;20120;-82
2022/01/14 07:19:39;;;;;;;20.67;9.55;;;;;;;;;;4960311;28;20031;-83
2022/01/14 07:22:05;;;;;;;23.85;11.52;;;;;;;;;;4958353;28;20118;-83
2022/01/14 07:24:31;;;;;;;28.23;12.70;;;;;;;;;;4959850;28;20034;-82
2022/01/14 07:26:57;;;;;;;26.38;11.85;;;;;;;;;;4957683;28;20023;-83
2022/01/14 07:29:23;;;;;;;21.83;10.13;;;;;;;;;;4966355;28;20031;-83
2022/01/14 07:31:51;;;;;;;20.15;9.13;;;;;;;;;;4960581;28;20098;-83
2022/01/14 07:34:17;;;;;;;23.63;9.25;;;;;;;;;;4964144;28;20030;-82
2022/01/14 07:36:43;;;;;;;16.67;8.27;;;;;;;;;;4957334;29;20027;-83
2022/01/14 07:39:09;;;;;;;18.85;10.00;;;;;;;;;;4964326;28;20387;-84
2022/01/14 07:41:35;;;;;;;21.83;11.18;;;;;;;;;;4964118;28;20019;-81
2022/01/14 07:44:01;;;;;;;26.20;12.77;;;;;;;;;;4957482;29;20031;-84
2022/01/14 07:46:28;;;;;;;21.23;11.02;;;;;;;;;;4965087;28;20058;-83
2022/01/14 07:48:54;;;;;;;30.00;13.45;;;;;;;;;;4957615;28;20039;-83
2022/01/14 07:51:20;;;;;;;25.30;12.25;;;;;;;;;;4958839;28;20364;-84
2022/01/14 07:53:46;;;;;;;45.60;20.00;;;;;;;;;;4971443;28;20031;-85
2022/01/14 07:56:13;;;;;;;44.65;19.40;;;;;;;;;;4960823;28;20037;-83
2022/01/14 07:58:39;;;;;;;34.80;15.52;;;;;;;;;;4959334;28;20019;-83
2022/01/14 08:01:13;;;;;;;38.65;16.33;;;;;;;;;;4959414;28;20055;-83
2022/01/14 08:03:39;;;;;;;45.85;18.00;;;;;;;;;;4972501;28;20031;-82
2022/01/14 08:06:05;;;;;;;31.90;15.35;;;;;;;;;;4958334;29;20435;-81
2022/01/14 08:08:31;;;;;;;37.78;15.65;;;;;;;;;;4959008;28;20049;-83
2022/01/14 08:10:58;;;;;;;25.23;12.75;;;;;;;;;;4970253;28;20031;-83
2022/01/14 08:13:24;;;;;;;25.35;11.85;;;;;;;;;;4976255;28;20061;-82
2022/01/14 08:15:50;;;;;;;28.63;12.77;;;;;;;;;;4970055;28;20594;-84
2022/01/14 08:18:19;;;;;;;21.55;12.57;;;;;;;;;;4960764;28;20059;-82
2022/01/14 08:20:45;;;;;;;27.02;12.40;;;;;;;;;;4977111;28;20090;-83
2022/01/14 08:23:11;;;;;;;25.75;11.68;;;;;;;;;;4975373;28;20030;-82
2022/01/14 08:25:37;;;;;;;19.85;10.60;;;;;;;;;;4983979;28;20053;-83
2022/01/14 08:28:03;;;;;;;19.42;10.52;;;;;;;;;;4994904;28;20007;-83
2022/01/14 08:30:29;;;;;;;20.33;10.32;;;;;;;;;;4997816;28;20026;-82
2022/01/14 08:32:55;;;;;;;15.45;8.80;;;;;;;;;;4990268;28;20026;-81
2022/01/14 08:35:21;;;;;;;14.88;8.50;;;;;;;;;;4989028;28;20062;-83
2022/01/14 08:37:47;;;;;;;18.30;8.70;;;;;;;;;;4967511;28;20030;-82
2022/01/14 08:40:14;;;;;;;15.68;9.50;;;;;;;;;;4975855;28;20031;-84
2022/01/14 08:42:40;;;;;;;20.30;10.85;;;;;;;;;;4975834;28;20031;-84
2022/01/14 08:45:06;;;;;;;17.02;9.73;;;;;;;;;;4976023;28;20114;-82
2022/01/14 08:47:32;;;;;;;18.38;10.25;;;;;;;;;;4974853;28;20027;-83
2022/01/14 08:50:00;;;;;;;17.45;9.85;;;;;;;;;;4975097;28;20027;-83
2022/01/14 08:52:26;;;;;;;17.85;10.05;;;;;;;;;;4976123;28;20031;-84
2022/01/14 08:54:52;;;;;;;17.02;10.15;;;;;;;;;;4974983;28;20023;-84
2022/01/14 08:57:18;;;;;;;14.48;9.38;;;;;;;;;;4975110;28;20491;-82
2022/01/14 08:59:44;;;;;;;13.70;8.80;;;;;;;;;;4974715;28;20023;-85
2022/01/14 09:02:11;;;;;;;17.90;9.95;;;;;;;;;;4977695;28;20053;-83
2022/01/14 09:04:37;;;;;;;16.15;10.93;;;;;;;;;;4975146;28;20046;-81
2022/01/14 09:07:03;;;;;;;15.68;10.85;;;;;;;;;;4978290;28;20038;-85
2022/01/14 09:09:29;;;;;;;17.95;11.77;;;;;;;;;;4974839;28;20109;-80
2022/01/14 09:11:55;;;;;;;16.15;10.10;;;;;;;;;;4958122;28;20046;-82
2022/01/14 09:14:22;;;;;;;18.23;10.80;;;;;;;;;;4960605;28;20034;-83
2022/01/14 09:16:50;;;;;;;13.02;9.35;;;;;;;;;;4959481;29;20262;-83
2022/01/14 09:19:17;;;;;;;13.88;9.45;;;;;;;;;;4958827;28;20034;-84
2022/01/14 09:21:45;;;;;;;16.67;10.30;;;;;;;;;;4961000;29;20431;-84
2022/01/14 09:24:11;;;;;;;16.10;11.02;;;;;;;;;;4959886;28;20019;-85
2022/01/14 09:26:38;;;;;;;16.88;11.10;;;;;;;;;;4957037;28;20534;-83
2022/01/14 09:29:05;;;;;;;18.77;12.05;;;;;;;;;;4999953;23;20050;-85
2022/01/14 09:31:31;;;;;;;15.75;10.68;;;;;;;;;;4998260;28;20043;-85
2022/01/14 09:33:57;;;;;;;18.67;10.98;;;;;;;;;;4992896;28;20033;-85
2022/01/14 09:36:24;;;;;;;16.13;10.90;;;;;;;;;;4994616;28;20030;-85
2022/01/14 09:38:50;;;;;;;17.08;10.43;;;;;;;;;;4996966;28;20040;-85
2022/01/14 09:41:17;;;;;;;16.90;10.73;;;;;;;;;;5007748;28;20023;-86
2022/01/14 09:43:44;;;;;;;15.75;10.35;;;;;;;;;;5010950;28;20117;-86
2022/01/14 09:46:11;;;;;;;16.40;10.30;;;;;;;;;;4997166;28;20097;-86
2022/01/14 09:48:37;;;;;;;15.57;10.77;;;;;;;;;;4978693;28;20037;-85
2022/01/14 09:51:04;;;;;;;15.57;10.10;;;;;;;;;;4977240;28;20125;-85
2022/01/14 09:53:30;;;;;;;18.98;10.98;;;;;;;;;;4976939;28;20038;-85
2022/01/14 09:55:57;;;;;;;17.25;11.00;;;;;;;;;;4976329;28;20030;-87
2022/01/14 09:58:24;;;;;;;16.77;10.90;;;;;;;;;;4975518;28;20109;-86
2022/01/14 10:01:06;;;;;;;17.00;11.15;;;;;;;;;;4977309;28;20030;-86
2022/01/14 10:03:32;;;;;;;17.85;12.13;;;;;;;;;;4974623;28;20043;-87
2022/01/14 10:05:58;;;;;;;16.33;10.73;;;;;;;;;;4956375;28;20090;-86
2022/01/14 10:08:26;;;;;;;19.38;11.05;;;;;;;;;;4958687;28;20031;-86
2022/01/14 10:10:57;;;;;;;18.38;10.57;;;;;;;;;;4984717;28;20773;-86
2022/01/14 10:13:25;;;;;;;16.02;11.10;;;;;;;;;;4997341;28;20084;-86
2022/01/14 10:15:53;;;;;;;16.00;10.55;;;;;;;;;;4988502;28;20042;-86
2022/01/14 10:18:20;;;;;;;14.90;10.32;;;;;;;;;;4977160;28;20042;-86
2022/01/14 10:20:47;;;;;;;14.13;10.25;;;;;;;;;;4977817;28;20030;-86
2022/01/14 10:23:13;;;;;;;15.88;9.75;;;;;;;;;;4975584;28;20205;-85
2022/01/14 10:25:41;;;;;;;21.45;11.30;;;;;;;;;;4975724;28;20042;-86
2022/01/14 10:28:17;;;;;;;17.65;11.30;;;;;;;;;;4976468;28;20086;-86
2022/01/14 10:30:45;;;;;;;15.98;10.40;;;;;;;;;;4977105;28;20085;-86
2022/01/14 10:33:11;;;;;;;16.05;10.45;;;;;;;;;;4977158;28;20501;-85
2022/01/14 10:35:41;;;;;;;12.88;9.23;;;;;;;;;;4976359;28;20027;-86
2022/01/14 10:38:13;;;;;;;13.82;10.05;;;;;;;;;;4980981;28;20022;-86
2022/01/14 10:40:58;;;;;;;15.32;10.05;;;;;;;;;;4994634;28;20054;-87
2022/01/14 10:43:32;;;;;;;14.10;10.57;;;;;;;;;;4995808;28;20089;-87
2022/01/14 10:46:01;;;;;;;15.75;10.70;;;;;;;;;;4994033;28;20033;-87
2022/01/14 10:48:35;;;;;;;19.35;11.13;;;;;;;;;;4994906;28;20034;-87
2022/01/14 10:51:08;;;;;;;18.05;11.27;;;;;;;;;;4993782;28;20026;-86
2022/01/14 10:53:34;;;;;;;18.08;12.02;;;;;;;;;;4995149;28;20022;-85
2022/01/14 10:56:05;;;;;;;15.68;9.77;;;;;;;;;;4994559;28;20018;-84
2022/01/14 10:58:35;;;;;;;14.93;10.38;;;;;;;;;;4994040;28;20068;-85
2022/01/14 11:01:05;;;;;;;13.25;8.93;;;;;;;;;;4995537;28;20022;-86
2022/01/14 11:03:40;;;;;;;16.63;10.77;;;;;;;;;;4995403;28;20494;-86
2022/01/14 11:06:19;;;;;;;11.93;8.00;;;;;;;;;;4996529;28;20033;-86
2022/01/14 11:08:49;;;;;;;14.63;8.65;;;;;;;;;;4995572;28;20027;-86
2022/01/14 11:11:16;;;;;;;14.52;9.25;;;;;;;;;;4995882;28;20072;-85
2022/01/14 11:13:43;;;;;;;14.25;9.27;;;;;;;;;;4984406;28;20645;-87
2022/01/14 11:16:09;;;;;;;16.23;11.52;;;;;;;;;;4975233;28;20027;-86
2022/01/14 11:18:37;;;;;;;19.52;11.07;;;;;;;;;;4980270;28;20030;-86
2022/01/14 11:23:47;;;;;;;12.57;7.90;;;;;;;;;;4975818;28;20037;-86
2022/01/14 11:26:16;;;;;;;11.63;7.47;;;;;;;;;;4974876;28;20120;-87
2022/01/14 11:28:43;;;;;;;17.27;9.52;;;;;;;;;;4975588;28;20019;-87
2022/01/14 11:31:32;;;;;;;11.25;7.00;;;;;;;;;;4974352;28;20027;-87
2022/01/14 11:33:59;;;;;;;8.43;6.22;;;;;;;;;;4967986;28;20041;-86
2022/01/14 11:36:26;;;;;;;13.10;7.85;;;;;;;;;;4974939;28;20395;-87
2022/01/14 11:38:52;;;;;;;12.60;8.55;;;;;;;;;;4982854;28;20031;-87
2022/01/14 11:41:19;;;;;;;13.65;9.30;;;;;;;;;;4992599;28;20035;-87
2022/01/14 11:43:48;;;;;;;14.75;8.70;;;;;;;;;;4975189;28;20170;-87
2022/01/14 11:46:16;;;;;;;13.00;8.50;;;;;;;;;;4973902;28;20105;-86
2022/01/14 11:48:49;;;;;;;10.40;6.95;;;;;;;;;;4974141;28;20716;-85
2022/01/14 11:51:18;;;;;;;8.98;6.72;;;;;;;;;;4974491;28;20446;-85
2022/01/14 11:53:49;;;;;;;12.73;6.95;;;;;;;;;;4976006;28;20026;-87
2022/01/14 11:56:30;;;;;;;14.60;7.80;;;;;;;;;;4975657;28;20049;-86
2022/01/14 11:59:15;;;;;;;12.55;8.43;;;;;;;;;;4959440;28;20042;-87
2022/01/14 12:01:41;;;;;;;16.65;9.10;;;;;;;;;;4973336;28;20027;-86
2022/01/14 12:04:07;;;;;;;14.85;8.05;;;;;;;;;;4976624;28;20027;-86
2022/01/14 12:06:51;;;;;;;14.25;8.77;;;;;;;;;;4978772;28;20130;-85
2022/01/14 12:09:24;;;;;;;15.73;8.25;;;;;;;;;;4977274;28;20483;-85
2022/01/14 12:12:09;;;;;;;13.95;8.70;;;;;;;;;;4993905;28;20085;-86
2022/01/14 12:14:43;;;;;;;13.45;8.20;;;;;;;;;;5000406;28;20041;-85
2022/01/14 12:17:15;;;;;;;16.52;8.32;;;;;;;;;;4984209;28;20030;-86
2022/01/14 12:19:41;;;;;;;13.27;8.00;;;;;;;;;;4984915;28;20031;-85
2022/01/14 12:22:09;;;;;;;14.43;7.60;;;;;;;;;;4985520;28;20041;-86
2022/01/14 12:24:36;;;;;;;15.88;8.55;;;;;;;;;;4984015;28;20027;-85
2022/01/14 12:27:12;;;;;;;16.10;9.23;;;;;;;;;;4983286;28;20043;-86
2022/01/14 12:29:45;;;;;;;16.27;8.60;;;;;;;;;;4986341;28;20054;-87
2022/01/14 12:32:16;;;;;;;19.23;8.73;;;;;;;;;;4986959;28;20372;-86
2022/01/14 12:34:57;;;;;;;14.45;8.45;;;;;;;;;;4978930;28;20035;-86
2022/01/14 12:37:28;;;;;;;16.95;8.95;;;;;;;;;;4973390;28;20023;-86
2022/01/14 12:39:54;;;;;;;;;;;;;;;;;;4972551;28;20023;-85
2022/01/14 12:42:21;;;;;;;16.77;8.55;;;;;;;;;;4974529;28;19917;-85
2022/01/14 12:44:50;;;;;;;13.23;7.30;;;;;;;;;;4977550;28;20042;-85
2022/01/14 12:47:22;;;;;;;17.25;8.40;;;;;;;;;;4975635;28;20034;-84
2022/01/14 12:49:48;;;;;;;19.33;8.23;;;;;;;;;;4976519;28;20027;-85
2022/01/14 12:52:26;;;;;;;17.08;8.30;;;;;;;;;;4976980;28;20033;-85
2022/01/14 12:54:53;;;;;;;16.67;8.63;;;;;;;;;;4976082;28;20023;-84
2022/01/14 12:57:24;;;;;;;12.93;7.88;;;;;;;;;;4976599;28;20023;-87
2022/01/14 12:59:51;;;;;;;15.70;8.43;;;;;;;;;;4975254;28;20023;-85
2022/01/14 13:02:22;;;;;;;17.35;8.25;;;;;;;;;;5002335;28;20030;-84
2022/01/14 13:05:03;;;;;;;24.13;8.57;;;;;;;;;;4981950;28;20022;-84
2022/01/14 13:07:30;;;;;;;15.48;8.57;;;;;;;;;;4981312;28;20031;-85
2022/01/14 13:09:56;;;;;;;13.38;7.05;;;;;;;;;;4978861;28;20583;-85
2022/01/14 13:12:25;;;;;;;14.50;7.32;;;;;;;;;;4985511;28;20446;-85
2022/01/14 13:14:56;;;;;;;11.35;7.05;;;;;;;;;;4985915;28;20029;-86
2022/01/14 13:17:27;;;;;;;15.48;7.95;;;;;;;;;;4983824;28;20483;-86
2022/01/14 13:20:13;;;;;;;13.45;6.85;;;;;;;;;;4983996;28;20058;-87
2022/01/14 13:22:39;;;;;;;12.63;6.43;;;;;;;;;;4983163;28;20542;-87
2022/01/14 13:25:08;;;;;;;15.32;7.25;;;;;;;;;;4982493;28;20030;-86
2022/01/14 13:27:36;;;;;;;15.52;6.63;;;;;;;;;;4982459;28;20097;-85
2022/01/14 13:30:14;;;;;;;13.27;7.25;;;;;;;;;;4983468;28;20482;-85
2022/01/14 13:32:41;;;;;;;13.85;7.53;;;;;;;;;;4979754;28;20489;-85
2022/01/14 13:35:09;;;;;;;14.32;7.18;;;;;;;;;;4990393;28;20070;-86
2022/01/14 13:37:35;;;;;;;13.68;6.90;;;;;;;;;;5008677;28;20023;-86
2022/01/14 13:40:12;;;;;;;12.70;5.97;;;;;;;;;;4990999;28;20038;-85
2022/01/14 13:42:42;;;;;;;14.50;6.38;;;;;;;;;;4980357;28;20027;-85
2022/01/14 13:45:14;;;;;;;13.70;6.32;;;;;;;;;;4980794;28;20068;-85
2022/01/14 13:47:41;;;;;;;10.88;5.82;;;;;;;;;;4981412;28;20103;-85
2022/01/14 13:50:09;;;;;;;10.35;6.03;;;;;;;;;;4979621;28;20550;-85
2022/01/14 13:52:35;;;;;;;15.30;9.48;;;;;;;;;;4979016;28;20041;-86
2022/01/14 13:55:01;;;;;;;12.88;6.22;;;;;;;;;;4979074;28;20143;-84
2022/01/14 13:57:27;;;;;;;14.48;5.43;;;;;;;;;;4979681;28;20027;-86
2022/01/14 13:59:53;;;;;;;9.75;5.50;;;;;;;;;;4979872;28;20034;-85
2022/01/14 14:02:28;;;;;;;9.65;5.22;;;;;;;;;;4980344;28;20022;-85
2022/01/14 14:04:56;;;;;;;8.60;4.90;;;;;;;;;;4977694;28;20027;-86
2022/01/14 14:07:24;;;;;;;8.00;4.50;;;;;;;;;;4978201;28;20023;-85
2022/01/14 14:10:09;;;;;;;8.93;4.95;;;;;;;;;;4981511;28;20026;-86
2022/01/14 14:12:45;;;;;;;10.80;5.05;;;;;;;;;;4979867;28;20030;-84
2022/01/14 14:18:09;;;;;;;7.93;5.15;;;;;;;;;;4976717;28;20038;-85
2022/01/14 14:20:36;;;;;;;12.90;6.05;;;;;;;;;;4976714;28;20038;-85
2022/01/14 14:23:22;;;;;;;9.57;4.53;;;;;;;;;;4979056;28;20027;-86
2022/01/14 14:25:49;;;;;;;9.68;4.72;;;;;;;;;;5001190;28;20126;-85
2022/01/14 14:28:15;;;;;;;11.90;5.18;;;;;;;;;;4999770;28;20039;-86
2022/01/14 14:30:43;;;;;;;11.55;5.38;;;;;;;;;;4999525;28;20042;-87
2022/01/14 14:33:10;;;;;;;8.75;5.63;;;;;;;;;;4996467;28;20031;-86
2022/01/14 14:35:37;;;;;;;11.20;5.38;;;;;;;;;;4983508;28;20029;-86
2022/01/14 14:38:07;;;;;;;10.45;5.60;;;;;;;;;;4980126;28;20030;-86
2022/01/14 14:40:37;;;;;;;11.68;5.80;;;;;;;;;;4979674;28;20077;-86
2022/01/14 14:43:05;;;;;;;10.02;5.55;;;;;;;;;;4977678;28;20082;-86
2022/01/14 14:45:31;;;;;;;12.68;5.75;;;;;;;;;;4982710;28;20023;-86
2022/01/14 14:47:57;;;;;;;12.48;6.07;;;;;;;;;;4977823;28;20045;-86
2022/01/14 14:50:27;;;;;;;11.00;5.93;;;;;;;;;;4978109;28;20387;-86
2022/01/14 14:52:53;;;;;;;11.23;5.82;;;;;;;;;;4979609;28;20022;-86
2022/01/14 14:55:19;;;;;;;13.48;6.85;;;;;;;;;;4982168;28;20034;-86
2022/01/14 14:57:49;;;;;;;11.50;5.78;;;;;;;;;;4979384;28;20023;-86
2022/01/14 15:00:23;;;;;;;11.52;6.88;;;;;;;;;;4976647;28;20300;-87
2022/01/14 15:02:50;;;;;;;11.73;6.38;;;;;;;;;;4978592;28;20049;-86
2022/01/14 15:05:17;;;;;;;13.18;7.55;;;;;;;;;;4977209;28;20030;-86